createdAt,value
2018-11-10T00:01:57.842Z,99.90
2018-11-10T00:04:25.563Z,99.90
2018-11-10T00:06:53.325Z,99.90
2018-11-10T00:09:21.671Z,99.90
2018-11-10T00:11:49.422Z,99.90
2018-11-10T00:14:17.168Z,99.90
2018-11-10T00:16:45.082Z,99.90
2018-11-10T00:19:13.168Z,99.90
2018-11-10T00:21:40.851Z,99.90
2018-11-10T00:24:08.467Z,99.90
2018-11-10T00:26:36.323Z,99.90
2018-11-10T00:29:03.981Z,99.90
2018-11-10T00:31:31.585Z,99.90
2018-11-10T00:33:59.885Z,99.90
2018-11-10T00:36:27.598Z,99.90
2018-11-10T00:38:55.283Z,99.90
2018-11-10T00:41:23.025Z,99.90
2018-11-10T00:43:50.801Z,99.90
2018-11-10T00:46:18.631Z,99.90
2018-11-10T00:48:47.001Z,99.90
2018-11-10T00:51:15.451Z,99.90
2018-11-10T00:53:43.186Z,99.90
2018-11-10T00:56:11.038Z,99.90
2018-11-10T00:58:38.803Z,99.90
2018-11-10T01:01:06.466Z,99.90
2018-11-10T01:03:35.080Z,99.90
2018-11-10T01:06:03.410Z,99.90
2018-11-10T01:08:31.207Z,99.90
2018-11-10T01:10:58.863Z,99.90
2018-11-10T01:13:26.464Z,99.90
2018-11-10T01:15:55.006Z,99.90
2018-11-10T01:18:22.634Z,99.90
2018-11-10T01:20:50.348Z,99.90
2018-11-10T01:23:18.081Z,99.90
2018-11-10T01:25:45.763Z,99.90
2018-11-10T01:28:13.564Z,99.90
2018-11-10T01:30:41.725Z,99.90
2018-11-10T01:33:09.309Z,99.90
2018-11-10T01:35:37.885Z,99.90
2018-11-10T01:38:05.896Z,99.90
2018-11-10T01:40:33.643Z,99.90
2018-11-10T01:43:01.817Z,99.90
2018-11-10T01:45:29.440Z,99.90
2018-11-10T01:47:57.878Z,99.90
2018-11-10T01:50:26.180Z,99.90
2018-11-10T01:52:53.826Z,99.90
2018-11-10T01:55:22.298Z,99.90
2018-11-10T01:57:49.989Z,99.90
2018-11-10T02:00:18.617Z,99.90
2018-11-10T02:02:46.920Z,99.90
2018-11-10T02:05:21.239Z,99.90
2018-11-10T02:07:49.143Z,99.90
2018-11-10T02:10:17.350Z,99.90
2018-11-10T02:12:45.005Z,99.90
2018-11-10T02:15:15.109Z,99.90
2018-11-10T02:17:42.699Z,99.90
2018-11-10T02:20:11.886Z,99.90
2018-11-10T02:22:39.625Z,99.90
2018-11-10T02:25:08.689Z,99.90
2018-11-10T02:27:36.614Z,99.90
2018-11-10T02:30:05.117Z,99.90
2018-11-10T02:32:32.797Z,99.90
2018-11-10T02:35:00.509Z,99.90
2018-11-10T02:37:28.155Z,99.90
2018-11-10T02:39:56.559Z,99.90
2018-11-10T02:42:24.257Z,99.90
2018-11-10T02:44:52.036Z,99.90
2018-11-10T02:47:19.692Z,99.90
2018-11-10T02:49:48.007Z,99.90
2018-11-10T02:52:15.665Z,99.90
2018-11-10T02:54:43.863Z,99.90
2018-11-10T02:57:11.612Z,99.90
2018-11-10T02:59:39.327Z,99.90
2018-11-10T03:02:07.023Z,99.90
2018-11-10T03:04:34.791Z,99.90
2018-11-10T03:07:02.817Z,99.90
2018-11-10T03:09:30.495Z,99.90
2018-11-10T03:11:58.113Z,99.90
2018-11-10T03:14:25.812Z,99.90
2018-11-10T03:16:53.793Z,99.90
2018-11-10T03:19:21.986Z,99.90
2018-11-10T03:21:49.856Z,99.90
2018-11-10T03:24:17.489Z,99.90
2018-11-10T03:26:45.910Z,99.90
2018-11-10T03:29:13.580Z,99.90
2018-11-10T03:31:41.221Z,99.90
2018-11-10T03:34:08.818Z,99.90
2018-11-10T03:36:36.783Z,99.90
2018-11-10T03:39:07.569Z,99.90
2018-11-10T03:41:35.442Z,99.90
2018-11-10T03:44:03.141Z,99.90
2018-11-10T03:46:30.754Z,99.90
2018-11-10T03:48:59.180Z,99.90
2018-11-10T03:51:26.764Z,99.90
2018-11-10T03:53:54.373Z,99.90
2018-11-10T03:56:21.997Z,99.90
2018-11-10T03:58:49.985Z,99.90
2018-11-10T04:01:17.730Z,99.90
2018-11-10T04:03:45.389Z,99.90
2018-11-10T04:06:13.861Z,99.90
2018-11-10T04:08:41.698Z,99.90
2018-11-10T04:11:09.699Z,99.90
2018-11-10T04:13:38.162Z,99.90
2018-11-10T04:16:06.046Z,99.90
2018-11-10T04:18:33.807Z,99.90
2018-11-10T04:21:01.454Z,99.90
2018-11-10T04:23:29.275Z,99.90
2018-11-10T04:25:56.921Z,99.90
2018-11-10T04:28:24.651Z,99.90
2018-11-10T04:30:52.433Z,99.90
2018-11-10T04:33:20.186Z,99.90
2018-11-10T04:35:47.980Z,99.90
2018-11-10T04:38:15.622Z,99.90
2018-11-10T04:40:43.460Z,99.90
2018-11-10T04:43:11.097Z,99.90
2018-11-10T04:45:38.935Z,99.90
2018-11-10T04:48:06.611Z,99.90
2018-11-10T04:50:35.766Z,99.90
2018-11-10T04:53:03.435Z,99.90
2018-11-10T04:55:31.241Z,99.90
2018-11-10T04:57:59.046Z,99.90
2018-11-10T05:00:26.685Z,99.90
2018-11-10T05:02:54.461Z,99.90
2018-11-10T05:05:22.158Z,99.90
2018-11-10T05:07:50.525Z,99.90
2018-11-10T05:10:18.201Z,99.90
2018-11-10T05:12:46.139Z,99.90
2018-11-10T05:15:14.453Z,99.90
2018-11-10T05:17:42.190Z,99.90
2018-11-10T05:20:10.009Z,99.90
2018-11-10T05:22:38.337Z,99.90
2018-11-10T05:25:07.166Z,99.90
2018-11-10T05:27:35.614Z,99.90
2018-11-10T05:30:04.095Z,99.90
2018-11-10T05:32:31.742Z,99.90
2018-11-10T05:35:00.013Z,99.90
2018-11-10T05:37:27.658Z,99.90
2018-11-10T05:39:56.033Z,99.90
2018-11-10T05:42:23.672Z,99.90
2018-11-10T05:44:51.271Z,99.90
2018-11-10T05:47:18.932Z,99.90
2018-11-10T05:49:46.641Z,99.90
2018-11-10T05:52:14.911Z,99.90
2018-11-10T05:54:42.561Z,99.90
2018-11-10T05:57:10.271Z,99.90
2018-11-10T05:59:37.976Z,99.90
2018-11-10T06:02:05.957Z,99.90
2018-11-10T06:04:34.160Z,99.90
2018-11-10T06:07:02.357Z,99.90
2018-11-10T06:09:30.182Z,99.90
2018-11-10T06:11:57.822Z,99.90
2018-11-10T06:14:26.229Z,99.90
2018-11-10T06:16:53.830Z,99.90
2018-11-10T06:19:21.546Z,99.90
2018-11-10T06:21:49.341Z,99.90
2018-11-10T06:24:16.981Z,99.90
2018-11-10T06:26:44.788Z,99.90
2018-11-10T06:29:12.516Z,99.90
2018-11-10T06:31:40.801Z,99.90
2018-11-10T06:34:09.116Z,99.90
2018-11-10T06:36:37.533Z,99.90
2018-11-10T06:39:08.175Z,99.90
2018-11-10T06:41:36.217Z,99.90
2018-11-10T06:44:04.023Z,99.90
2018-11-10T06:46:32.096Z,99.90
2018-11-10T06:48:59.897Z,99.90
2018-11-10T06:51:27.709Z,99.90
2018-11-10T06:53:55.975Z,99.90
2018-11-10T06:56:24.505Z,99.90
2018-11-10T06:58:52.681Z,99.90
2018-11-10T07:01:20.554Z,99.90
2018-11-10T07:03:48.993Z,99.90
2018-11-10T07:06:16.749Z,99.90
2018-11-10T07:08:44.972Z,99.90
2018-11-10T07:11:12.613Z,99.90
2018-11-10T07:13:40.336Z,99.90
2018-11-10T07:16:08.553Z,99.90
2018-11-10T07:18:36.212Z,99.90
2018-11-10T07:21:04.337Z,99.90
2018-11-10T07:23:32.759Z,99.90
2018-11-10T07:26:00.450Z,99.90
2018-11-10T07:28:28.571Z,99.90
2018-11-10T07:30:56.214Z,99.90
2018-11-10T07:33:23.901Z,99.90
2018-11-10T07:35:51.513Z,99.90
2018-11-10T07:38:19.336Z,99.90
2018-11-10T07:40:46.992Z,99.90
2018-11-10T07:43:14.846Z,99.90
2018-11-10T07:45:42.497Z,99.90
2018-11-10T07:48:10.182Z,99.90
2018-11-10T07:50:37.840Z,99.90
2018-11-10T07:53:05.550Z,99.90
2018-11-10T07:55:33.313Z,99.90
2018-11-10T07:58:01.640Z,99.90
2018-11-10T08:00:29.643Z,99.90
2018-11-10T08:02:58.829Z,99.90
2018-11-10T08:05:26.469Z,99.90
2018-11-10T08:07:54.137Z,99.90
2018-11-10T08:10:22.030Z,99.90
2018-11-10T08:12:49.682Z,99.90
2018-11-10T08:15:17.649Z,99.90
2018-11-10T08:17:45.299Z,99.90
2018-11-10T08:20:14.115Z,99.90
2018-11-10T08:22:41.749Z,99.90
2018-11-10T08:25:11.701Z,99.90
2018-11-10T08:27:39.289Z,99.90
2018-11-10T08:30:08.693Z,99.90
2018-11-10T08:32:37.227Z,99.90
2018-11-10T08:35:05.956Z,99.90
2018-11-10T08:37:34.184Z,99.90
2018-11-10T08:40:02.193Z,99.90
2018-11-10T08:42:29.967Z,99.90
2018-11-10T08:44:57.776Z,99.90
2018-11-10T08:47:25.468Z,99.90
2018-11-10T08:49:53.195Z,99.90
2018-11-10T08:52:22.020Z,99.90
2018-11-10T08:54:49.733Z,99.90
2018-11-10T08:57:17.399Z,99.90
2018-11-10T08:59:45.182Z,99.90
2018-11-10T09:02:13.637Z,99.90
2018-11-10T09:04:41.345Z,99.90
2018-11-10T09:07:09.188Z,99.90
2018-11-10T09:09:38.244Z,99.90
2018-11-10T09:12:07.613Z,99.90
2018-11-10T09:14:36.256Z,99.90
2018-11-10T09:17:04.203Z,99.90
2018-11-10T09:19:31.879Z,99.90
2018-11-10T09:21:59.645Z,99.90
2018-11-10T09:24:27.282Z,99.90
2018-11-10T09:26:55.784Z,99.90
2018-11-10T09:29:23.696Z,99.90
2018-11-10T09:31:51.933Z,99.90
2018-11-10T09:34:19.569Z,99.90
2018-11-10T09:36:47.839Z,99.90
2018-11-10T09:39:15.630Z,99.90
2018-11-10T09:41:43.423Z,98.80
2018-11-10T09:44:11.126Z,99.40
2018-11-10T09:46:39.134Z,96.40
2018-11-10T09:49:06.837Z,97.30
2018-11-10T09:51:34.542Z,97.60
2018-11-10T09:54:02.471Z,97.50
2018-11-10T09:56:30.107Z,96.80
2018-11-10T09:58:57.873Z,96.00
2018-11-10T10:01:25.833Z,93.50
2018-11-10T10:03:53.499Z,94.30
2018-11-10T10:06:21.326Z,93.70
2018-11-10T10:08:49.086Z,93.40
2018-11-10T10:11:16.702Z,94.00
2018-11-10T10:13:44.876Z,94.90
2018-11-10T10:16:12.607Z,95.50
2018-11-10T10:18:41.024Z,97.00
2018-11-10T10:21:08.745Z,97.40
2018-11-10T10:23:36.537Z,96.00
2018-11-10T10:26:04.418Z,96.20
2018-11-10T10:28:33.064Z,96.80
2018-11-10T10:31:00.805Z,97.00
2018-11-10T10:33:28.534Z,96.50
2018-11-10T10:35:57.390Z,94.70
2018-11-10T10:38:25.179Z,95.10
2018-11-10T10:40:52.955Z,94.10
2018-11-10T10:43:20.806Z,93.60
2018-11-10T10:45:48.612Z,94.60
2018-11-10T10:48:16.311Z,94.10
2018-11-10T10:50:44.123Z,94.20
2018-11-10T10:53:11.915Z,94.60
2018-11-10T10:55:39.827Z,94.40
2018-11-10T10:58:08.248Z,94.30
2018-11-10T11:00:41.874Z,95.10
2018-11-10T11:03:16.426Z,94.60
2018-11-10T11:05:50.067Z,94.10
2018-11-10T11:08:17.900Z,93.60
2018-11-10T11:10:46.515Z,94.00
2018-11-10T11:13:14.890Z,94.10
2018-11-10T11:15:42.778Z,93.30
2018-11-10T11:18:11.325Z,93.60
2018-11-10T11:20:39.113Z,93.20
2018-11-10T11:23:07.060Z,93.50
2018-11-10T11:25:35.985Z,94.80
2018-11-10T11:28:04.485Z,94.90
2018-11-10T11:30:32.510Z,94.40
2018-11-10T11:33:01.780Z,94.40
2018-11-10T11:35:29.717Z,93.90
2018-11-10T11:37:58.030Z,93.90
2018-11-10T11:40:25.769Z,94.20
2018-11-10T11:42:54.200Z,95.10
2018-11-10T11:45:21.923Z,94.70
2018-11-10T11:47:49.922Z,94.70
2018-11-10T11:50:17.685Z,94.10
2018-11-10T11:52:46.595Z,94.50
2018-11-10T11:55:14.804Z,93.70
2018-11-10T11:57:42.535Z,93.90
2018-11-10T12:00:12.280Z,93.00
2018-11-10T12:02:41.731Z,92.50
2018-11-10T12:05:10.926Z,93.50
2018-11-10T12:07:38.723Z,93.10
2018-11-10T12:10:07.631Z,93.30
2018-11-10T12:12:36.175Z,93.50
2018-11-10T12:15:04.052Z,92.90
2018-11-10T12:17:31.946Z,92.70
2018-11-10T12:19:59.661Z,93.00
2018-11-10T12:22:27.415Z,93.00
2018-11-10T12:24:55.101Z,91.90
2018-11-10T12:27:22.810Z,91.20
2018-11-10T12:29:50.886Z,90.10
2018-11-10T12:32:18.686Z,88.30
2018-11-10T12:34:46.550Z,87.50
2018-11-10T12:37:14.259Z,87.40
2018-11-10T12:39:43.054Z,87.60
2018-11-10T12:42:11.553Z,85.80
2018-11-10T12:44:39.508Z,85.10
2018-11-10T12:47:08.527Z,86.40
2018-11-10T12:49:36.301Z,87.10
2018-11-10T12:52:04.469Z,85.90
2018-11-10T12:54:32.839Z,87.80
2018-11-10T12:57:01.560Z,90.10
2018-11-10T12:59:30.117Z,92.40
2018-11-10T13:01:58.058Z,92.90
2018-11-10T13:04:25.764Z,93.30
2018-11-10T13:06:54.269Z,93.60
2018-11-10T13:09:22.282Z,95.30
2018-11-10T13:11:50.373Z,94.80
2018-11-10T13:14:18.217Z,95.60
2018-11-10T13:16:46.087Z,97.00
2018-11-10T13:19:13.937Z,96.40
2018-11-10T13:21:41.844Z,99.00
2018-11-10T13:24:10.175Z,99.90
2018-11-10T13:26:37.980Z,99.90
2018-11-10T13:29:06.550Z,99.90
2018-11-10T13:31:34.569Z,99.90
2018-11-10T13:34:02.316Z,99.90
2018-11-10T13:36:30.198Z,99.90
2018-11-10T13:38:58.490Z,99.90
2018-11-10T13:41:26.518Z,99.90
2018-11-10T13:43:54.458Z,99.60
2018-11-10T13:46:22.501Z,99.90
2018-11-10T13:48:50.455Z,98.00
2018-11-10T13:51:18.671Z,99.60
2018-11-10T13:53:46.731Z,98.60
2018-11-10T13:56:14.357Z,97.70
2018-11-10T13:58:42.186Z,97.00
2018-11-10T14:01:10.067Z,95.80
2018-11-10T14:03:38.030Z,95.80
2018-11-10T14:06:06.306Z,94.60
2018-11-10T14:08:34.052Z,95.40
2018-11-10T14:11:01.749Z,94.80
2018-11-10T14:13:29.587Z,94.00
2018-11-10T14:15:57.262Z,94.30
2018-11-10T14:18:25.124Z,94.00
2018-11-10T14:20:53.432Z,94.30
2018-11-10T14:23:21.425Z,94.50
2018-11-10T14:25:49.289Z,94.20
2018-11-10T14:28:17.048Z,93.60
2018-11-10T14:30:44.771Z,93.30
2018-11-10T14:33:12.462Z,93.60
2018-11-10T14:35:40.175Z,93.50
2018-11-10T14:38:08.101Z,93.20
2018-11-10T14:40:35.808Z,93.30
2018-11-10T14:43:04.208Z,92.80
2018-11-10T14:45:31.871Z,92.80
2018-11-10T14:47:59.958Z,92.90
2018-11-10T14:50:27.560Z,93.10
2018-11-10T14:52:55.422Z,93.40
2018-11-10T14:55:22.973Z,93.70
2018-11-10T14:57:51.196Z,93.90
2018-11-10T15:00:24.053Z,93.20
2018-11-10T15:02:51.741Z,93.60
2018-11-10T15:05:19.476Z,92.90
2018-11-10T15:07:47.290Z,92.60
2018-11-10T15:10:15.983Z,92.90
2018-11-10T15:12:44.228Z,92.90
2018-11-10T15:15:13.140Z,93.30
2018-11-10T15:17:41.179Z,93.20
2018-11-10T15:20:10.726Z,93.70
2018-11-10T15:22:38.455Z,93.70
2018-11-10T15:25:08.051Z,93.50
2018-11-10T15:27:35.923Z,93.50
2018-11-10T15:30:04.479Z,93.50
2018-11-10T15:32:32.904Z,93.20
2018-11-10T15:35:00.713Z,93.60
2018-11-10T15:37:28.585Z,94.10
2018-11-10T15:39:57.525Z,94.80
2018-11-10T15:42:25.276Z,95.80
2018-11-10T15:44:53.061Z,95.20
2018-11-10T15:47:21.218Z,96.80
2018-11-10T15:49:49.029Z,96.30
2018-11-10T15:52:17.089Z,97.40
2018-11-10T15:54:45.636Z,97.20
2018-11-10T15:57:13.683Z,98.40
2018-11-10T15:59:42.039Z,99.70
2018-11-10T16:02:09.869Z,99.90
2018-11-10T16:04:37.732Z,99.90
2018-11-10T16:07:05.545Z,99.90
2018-11-10T16:09:33.384Z,99.90
2018-11-10T16:12:01.246Z,99.70
2018-11-10T16:14:28.916Z,99.60
2018-11-10T16:16:56.797Z,99.90
2018-11-10T16:19:24.851Z,99.90
2018-11-10T16:21:53.143Z,99.90
2018-11-10T16:24:20.925Z,99.90
2018-11-10T16:26:48.617Z,99.90
2018-11-10T16:29:17.042Z,99.90
2018-11-10T16:31:44.757Z,99.90
2018-11-10T16:34:12.692Z,99.90
2018-11-10T16:36:40.368Z,99.90
2018-11-10T16:39:08.672Z,99.90
2018-11-10T16:41:36.518Z,98.70
2018-11-10T16:44:04.398Z,98.40
2018-11-10T16:46:32.180Z,98.40
2018-11-10T16:48:59.983Z,98.50
2018-11-10T16:51:28.496Z,98.60
2018-11-10T16:53:56.311Z,98.10
2018-11-10T16:56:24.096Z,98.00
2018-11-10T16:58:51.809Z,97.80
2018-11-10T17:01:20.265Z,97.70
2018-11-10T17:03:48.062Z,97.60
2018-11-10T17:06:15.867Z,97.70
2018-11-10T17:08:44.623Z,97.70
2018-11-10T17:11:12.388Z,98.00
2018-11-10T17:13:40.385Z,98.20
2018-11-10T17:16:08.048Z,98.50
2018-11-10T17:18:36.086Z,98.20
2018-11-10T17:21:03.862Z,98.30
2018-11-10T17:23:31.453Z,98.40
2018-11-10T17:25:59.303Z,98.60
2018-11-10T17:28:27.331Z,98.80
2018-11-10T17:30:56.361Z,98.90
2018-11-10T17:33:24.294Z,98.80
2018-11-10T17:35:52.804Z,98.30
2018-11-10T17:38:20.937Z,98.50
2018-11-10T17:40:48.582Z,98.20
2018-11-10T17:43:16.573Z,98.40
2018-11-10T17:45:44.208Z,98.10
2018-11-10T17:48:11.807Z,97.60
2018-11-10T17:50:39.426Z,97.30
2018-11-10T17:53:07.262Z,97.30
2018-11-10T17:55:34.985Z,97.30
2018-11-10T17:58:02.687Z,96.70
2018-11-10T18:00:31.099Z,97.10
2018-11-10T18:02:59.148Z,96.40
2018-11-10T18:05:26.927Z,96.40
2018-11-10T18:07:54.656Z,96.10
2018-11-10T18:10:22.462Z,97.10
2018-11-10T18:12:50.196Z,97.80
2018-11-10T18:15:18.003Z,98.60
2018-11-10T18:17:45.998Z,98.50
2018-11-10T18:20:15.099Z,99.80
2018-11-10T18:22:43.430Z,99.10
2018-11-10T18:25:11.854Z,99.90
2018-11-10T18:27:39.900Z,99.90
2018-11-10T18:30:10.130Z,99.90
2018-11-10T18:32:37.980Z,99.90
2018-11-10T18:35:07.465Z,99.90
2018-11-10T18:37:36.236Z,99.90
2018-11-10T18:40:04.741Z,99.90
2018-11-10T18:42:32.515Z,99.90
2018-11-10T18:45:00.751Z,99.90
2018-11-10T18:47:28.555Z,99.90
2018-11-10T18:49:56.447Z,99.90
2018-11-10T18:52:25.050Z,99.90
2018-11-10T18:54:52.817Z,99.90
2018-11-10T18:57:20.525Z,99.90
2018-11-10T18:59:48.434Z,99.90
2018-11-10T19:02:17.439Z,99.90
2018-11-10T19:04:45.112Z,99.90
2018-11-10T19:07:13.119Z,99.90
2018-11-10T19:09:40.813Z,99.90
2018-11-10T19:12:08.519Z,99.90
2018-11-10T19:14:36.218Z,99.90
2018-11-10T19:17:04.723Z,99.90
2018-11-10T19:19:32.758Z,99.90
2018-11-10T19:22:01.166Z,99.90
2018-11-10T19:24:29.006Z,99.90
2018-11-10T19:26:56.761Z,99.90
2018-11-10T19:29:24.524Z,99.90
2018-11-10T19:31:52.437Z,99.90
2018-11-10T19:34:20.302Z,99.90
2018-11-10T19:36:48.033Z,99.90
2018-11-10T19:39:15.731Z,99.90
2018-11-10T19:41:43.423Z,99.90
2018-11-10T19:44:11.125Z,99.90
2018-11-10T19:46:39.943Z,99.90
2018-11-10T19:49:08.107Z,99.90
2018-11-10T19:51:35.988Z,99.90
2018-11-10T19:54:03.699Z,99.90
2018-11-10T19:56:31.521Z,99.90
2018-11-10T19:58:59.270Z,99.90
2018-11-10T20:01:27.141Z,99.90
2018-11-10T20:03:55.430Z,99.90
2018-11-10T20:06:23.302Z,99.90
2018-11-10T20:08:51.130Z,99.90
2018-11-10T20:11:19.706Z,99.90
2018-11-10T20:13:47.618Z,99.90
2018-11-10T20:16:15.385Z,99.90
2018-11-10T20:18:43.023Z,99.90
2018-11-10T20:21:10.664Z,99.90
2018-11-10T20:23:40.579Z,99.90
2018-11-10T20:26:08.232Z,99.90
2018-11-10T20:28:36.128Z,99.90
2018-11-10T20:31:04.756Z,99.90
2018-11-10T20:33:32.887Z,99.90
2018-11-10T20:36:00.677Z,99.90
2018-11-10T20:38:28.497Z,99.90
2018-11-10T20:40:56.301Z,99.90
2018-11-10T20:43:24.006Z,99.90
2018-11-10T20:45:52.300Z,99.90
2018-11-10T20:48:20.846Z,99.90
2018-11-10T20:50:48.846Z,99.90
2018-11-10T20:53:17.353Z,99.90
2018-11-10T20:55:45.325Z,99.90
2018-11-10T20:58:13.117Z,99.90
2018-11-10T21:00:40.964Z,99.90
2018-11-10T21:03:09.319Z,99.90
2018-11-10T21:05:37.267Z,99.90
2018-11-10T21:08:05.101Z,99.90
2018-11-10T21:10:32.792Z,99.90
2018-11-10T21:13:00.756Z,99.90
2018-11-10T21:15:28.570Z,99.90
2018-11-10T21:17:56.294Z,99.90
2018-11-10T21:20:23.992Z,99.90
2018-11-10T21:22:51.795Z,99.90
2018-11-10T21:25:19.718Z,99.90
2018-11-10T21:27:47.794Z,99.90
2018-11-10T21:30:18.414Z,99.90
2018-11-10T21:32:46.692Z,99.90
2018-11-10T21:35:14.659Z,99.90
2018-11-10T21:37:42.397Z,99.90
2018-11-10T21:40:13.082Z,99.90
2018-11-10T21:42:41.508Z,99.90
2018-11-10T21:45:10.263Z,99.90
2018-11-10T21:47:38.617Z,99.90
2018-11-10T21:50:09.074Z,99.90
2018-11-10T21:52:37.402Z,99.90
2018-11-10T21:55:05.505Z,99.90
2018-11-10T21:57:33.151Z,99.90
2018-11-10T22:00:01.046Z,99.90
2018-11-10T22:02:28.792Z,99.90
2018-11-10T22:04:56.622Z,99.90
2018-11-10T22:07:24.403Z,99.90
2018-11-10T22:09:52.175Z,99.90
2018-11-10T22:12:19.863Z,99.90
2018-11-10T22:14:48.259Z,99.90
2018-11-10T22:17:16.082Z,99.90
2018-11-10T22:19:45.118Z,99.90
2018-11-10T22:22:12.854Z,99.90
2018-11-10T22:24:40.578Z,99.90
2018-11-10T22:27:08.529Z,99.90
2018-11-10T22:29:36.262Z,99.90
2018-11-10T22:32:04.277Z,99.90
2018-11-10T22:34:32.767Z,99.90
2018-11-10T22:37:00.461Z,99.90
2018-11-10T22:39:28.179Z,99.90
2018-11-10T22:41:55.875Z,99.90
2018-11-10T22:44:23.561Z,99.90
2018-11-10T22:46:51.734Z,99.90
2018-11-10T22:49:19.375Z,99.90
2018-11-10T22:51:47.109Z,99.90
2018-11-10T22:54:14.838Z,99.90
2018-11-10T22:56:42.539Z,99.90
2018-11-10T22:59:10.507Z,99.90
2018-11-10T23:01:38.675Z,99.90
2018-11-10T23:04:07.113Z,99.90
2018-11-10T23:06:35.476Z,99.90
2018-11-10T23:09:04.053Z,99.90
2018-11-10T23:11:32.742Z,99.90
2018-11-10T23:14:01.560Z,99.90
2018-11-10T23:16:29.480Z,99.90
2018-11-10T23:18:57.658Z,99.90
2018-11-10T23:21:25.726Z,99.90
2018-11-10T23:23:53.483Z,99.90
2018-11-10T23:26:21.259Z,99.90
2018-11-10T23:28:49.752Z,99.90
2018-11-10T23:31:17.546Z,99.90
2018-11-10T23:33:45.359Z,99.90
2018-11-10T23:36:13.875Z,99.90
2018-11-10T23:38:41.477Z,99.90
2018-11-10T23:41:09.268Z,99.90
2018-11-10T23:43:37.025Z,99.90
2018-11-10T23:46:04.965Z,99.90
2018-11-10T23:48:34.153Z,99.90
2018-11-10T23:51:02.089Z,99.90
2018-11-10T23:53:29.793Z,99.90
2018-11-10T23:55:57.561Z,99.90
2018-11-10T23:58:25.159Z,99.90
